sensor_id;sensor_type;location;lat;lon;timestamp;pressure;altitude;pressure_sealevel;temperature;humidity
63339;BME280;47485;51.378;-1.342;2022-08-19T00:01:48;99920.41;;;21.19;29.74
63339;BME280;47485;51.378;-1.342;2022-08-19T00:04:17;99916.57;;;19.35;31.29
63339;BME280;47485;51.378;-1.342;2022-08-19T00:06:46;99918.25;;;20.18;30.12
63339;BME280;47485;51.378;-1.342;2022-08-19T00:09:16;99916.53;;;17.18;32.63
63339;BME280;47485;51.378;-1.342;2022-08-19T00:11:43;99921.18;;;14.84;35.37
63339;BME280;47485;51.378;-1.342;2022-08-19T00:14:13;99912.28;;;18.10;31.90
63339;BME280;47485;51.378;-1.342;2022-08-19T00:16:41;99910.04;;;18.23;32.24
63339;BME280;47485;51.378;-1.342;2022-08-19T00:19:09;99908.29;;;19.78;30.58
63339;BME280;47485;51.378;-1.342;2022-08-19T00:21:36;99908.99;;;18.97;29.94
63339;BME280;47485;51.378;-1.342;2022-08-19T00:24:03;99913.04;;;19.31;29.64
63339;BME280;47485;51.378;-1.342;2022-08-19T00:26:30;99916.94;;;21.61;28.61
63339;BME280;47485;51.378;-1.342;2022-08-19T00:28:57;99913.98;;;20.41;29.56
63339;BME280;47485;51.378;-1.342;2022-08-19T00:31:24;99918.49;;;18.61;30.52
63339;BME280;47485;51.378;-1.342;2022-08-19T00:33:50;99918.61;;;20.57;29.42
63339;BME280;47485;51.378;-1.342;2022-08-19T00:36:18;99919.40;;;20.08;28.89
63339;BME280;47485;51.378;-1.342;2022-08-19T00:38:46;99916.42;;;21.36;29.61
63339;BME280;47485;51.378;-1.342;2022-08-19T00:41:14;99918.62;;;19.88;30.30
63339;BME280;47485;51.378;-1.342;2022-08-19T00:43:42;99915.00;;;20.29;29.48
63339;BME280;47485;51.378;-1.342;2022-08-19T00:46:08;99915.67;;;19.38;31.41
63339;BME280;47485;51.378;-1.342;2022-08-19T00:48:36;99918.12;;;20.75;32.79
63339;BME280;47485;51.378;-1.342;2022-08-19T00:51:04;99918.41;;;17.11;34.12
63339;BME280;47485;51.378;-1.342;2022-08-19T00:53:31;99916.83;;;18.77;32.85
63339;BME280;47485;51.378;-1.342;2022-08-19T00:56:01;99916.09;;;20.67;32.26
63339;BME280;47485;51.378;-1.342;2022-08-19T00:58:31;99915.84;;;21.93;30.61
63339;BME280;47485;51.378;-1.342;2022-08-19T01:00:58;99914.42;;;21.49;30.98
63339;BME280;47485;51.378;-1.342;2022-08-19T01:03:25;99914.09;;;19.27;32.78
63339;BME280;47485;51.378;-1.342;2022-08-19T01:05:54;99913.72;;;19.45;32.22
63339;BME280;47485;51.378;-1.342;2022-08-19T01:08:22;99911.30;;;17.68;33.97
63339;BME280;47485;51.378;-1.342;2022-08-19T01:10:52;99906.53;;;19.14;33.53
63339;BME280;47485;51.378;-1.342;2022-08-19T01:13:23;99907.23;;;19.72;33.22
63339;BME280;47485;51.378;-1.342;2022-08-19T01:15:55;99903.63;;;18.39;34.62
63339;BME280;47485;51.378;-1.342;2022-08-19T01:18:23;99902.85;;;17.82;36.81
63339;BME280;47485;51.378;-1.342;2022-08-19T01:20:54;99904.14;;;18.13;38.36
63339;BME280;47485;51.378;-1.342;2022-08-19T01:23:22;99901.91;;;18.51;37.69
63339;BME280;47485;51.378;-1.342;2022-08-19T01:25:51;99901.93;;;19.58;37.48
63339;BME280;47485;51.378;-1.342;2022-08-19T01:28:21;99906.03;;;17.01;39.72
63339;BME280;47485;51.378;-1.342;2022-08-19T01:30:48;99910.30;;;18.14;37.63
63339;BME280;47485;51.378;-1.342;2022-08-19T01:33:15;99911.82;;;15.88;37.90
63339;BME280;47485;51.378;-1.342;2022-08-19T01:35:43;99910.59;;;16.89;37.81
63339;BME280;47485;51.378;-1.342;2022-08-19T01:38:18;99912.19;;;17.22;37.62
63339;BME280;47485;51.378;-1.342;2022-08-19T01:40:45;99909.30;;;17.58;36.13
63339;BME280;47485;51.378;-1.342;2022-08-19T01:43:12;99903.69;;;19.26;32.90
63339;BME280;47485;51.378;-1.342;2022-08-19T01:45:39;99902.71;;;20.99;32.28
63339;BME280;47485;51.378;-1.342;2022-08-19T01:48:06;99903.54;;;19.98;32.66
63339;BME280;47485;51.378;-1.342;2022-08-19T01:50:34;99903.15;;;20.98;31.68
63339;BME280;47485;51.378;-1.342;2022-08-19T01:53:03;99907.19;;;21.59;32.08
63339;BME280;47485;51.378;-1.342;2022-08-19T01:55:33;99907.47;;;18.95;34.54
63339;BME280;47485;51.378;-1.342;2022-08-19T01:58:02;99904.76;;;18.23;34.45
63339;BME280;47485;51.378;-1.342;2022-08-19T02:00:32;99902.78;;;18.79;35.66
63339;BME280;47485;51.378;-1.342;2022-08-19T02:02:59;99907.28;;;18.48;38.15
63339;BME280;47485;51.378;-1.342;2022-08-19T02:05:25;99910.02;;;16.24;41.19
63339;BME280;47485;51.378;-1.342;2022-08-19T02:07:52;99913.75;;;16.65;40.88
63339;BME280;47485;51.378;-1.342;2022-08-19T02:10:21;99912.81;;;15.91;41.67
63339;BME280;47485;51.378;-1.342;2022-08-19T02:12:48;99911.47;;;17.11;41.36
63339;BME280;47485;51.378;-1.342;2022-08-19T02:15:15;99918.41;;;15.62;44.62
63339;BME280;47485;51.378;-1.342;2022-08-19T02:17:43;99922.48;;;16.25;43.99
63339;BME280;47485;51.378;-1.342;2022-08-19T02:20:10;99920.30;;;14.97;45.51
63339;BME280;47485;51.378;-1.342;2022-08-19T02:22:38;99923.46;;;15.76;45.30
63339;BME280;47485;51.378;-1.342;2022-08-19T02:25:05;99926.97;;;15.39;45.96
63339;BME280;47485;51.378;-1.342;2022-08-19T02:27:31;99928.97;;;14.14;47.93
63339;BME280;47485;51.378;-1.342;2022-08-19T02:29:58;99931.00;;;15.00;45.40
63339;BME280;47485;51.378;-1.342;2022-08-19T02:32:25;99929.91;;;14.81;44.97
63339;BME280;47485;51.378;-1.342;2022-08-19T02:34:51;99932.28;;;14.22;44.97
63339;BME280;47485;51.378;-1.342;2022-08-19T02:37:19;99929.65;;;14.53;45.95
63339;BME280;47485;51.378;-1.342;2022-08-19T02:39:45;99935.81;;;14.15;44.06
63339;BME280;47485;51.378;-1.342;2022-08-19T02:42:12;99938.37;;;15.79;43.13
63339;BME280;47485;51.378;-1.342;2022-08-19T02:44:39;99936.81;;;16.61;43.62
63339;BME280;47485;51.378;-1.342;2022-08-19T02:47:06;99937.96;;;16.36;43.71
63339;BME280;47485;51.378;-1.342;2022-08-19T02:49:32;99943.70;;;15.50;45.04
63339;BME280;47485;51.378;-1.342;2022-08-19T02:51:59;99946.41;;;15.78;46.02
63339;BME280;47485;51.378;-1.342;2022-08-19T02:54:27;99947.04;;;15.97;46.56
63339;BME280;47485;51.378;-1.342;2022-08-19T02:56:54;99945.50;;;16.27;43.02
63339;BME280;47485;51.378;-1.342;2022-08-19T02:59:22;99945.47;;;16.76;41.64
63339;BME280;47485;51.378;-1.342;2022-08-19T03:01:49;99946.43;;;17.45;41.42
63339;BME280;47485;51.378;-1.342;2022-08-19T03:04:17;99942.96;;;16.28;41.31
63339;BME280;47485;51.378;-1.342;2022-08-19T03:06:45;99944.19;;;16.55;42.16
63339;BME280;47485;51.378;-1.342;2022-08-19T03:09:14;99951.88;;;16.95;41.57
63339;BME280;47485;51.378;-1.342;2022-08-19T03:11:41;99943.78;;;17.62;41.81
63339;BME280;47485;51.378;-1.342;2022-08-19T03:14:08;99938.26;;;17.78;40.37
63339;BME280;47485;51.378;-1.342;2022-08-19T03:16:42;99943.74;;;17.33;40.93
63339;BME280;47485;51.378;-1.342;2022-08-19T03:19:10;99941.96;;;17.03;41.01
63339;BME280;47485;51.378;-1.342;2022-08-19T03:21:36;99938.23;;;16.56;40.57
63339;BME280;47485;51.378;-1.342;2022-08-19T03:24:06;99943.16;;;17.47;41.12
63339;BME280;47485;51.378;-1.342;2022-08-19T03:26:34;99946.06;;;16.57;41.81
63339;BME280;47485;51.378;-1.342;2022-08-19T03:29:05;99946.19;;;15.61;40.89
63339;BME280;47485;51.378;-1.342;2022-08-19T03:31:32;99946.98;;;17.68;38.58
63339;BME280;47485;51.378;-1.342;2022-08-19T03:33:58;99944.97;;;17.41;38.45
63339;BME280;47485;51.378;-1.342;2022-08-19T03:36:26;99942.46;;;18.38;36.90
63339;BME280;47485;51.378;-1.342;2022-08-19T03:38:54;99952.61;;;19.39;35.80
63339;BME280;47485;51.378;-1.342;2022-08-19T03:41:24;99956.52;;;17.86;38.12
63339;BME280;47485;51.378;-1.342;2022-08-19T03:43:52;99960.83;;;18.60;36.97
63339;BME280;47485;51.378;-1.342;2022-08-19T03:46:22;99956.19;;;18.99;37.56
63339;BME280;47485;51.378;-1.342;2022-08-19T03:48:53;99951.55;;;17.26;38.57
63339;BME280;47485;51.378;-1.342;2022-08-19T03:51:22;99951.82;;;17.83;37.75
63339;BME280;47485;51.378;-1.342;2022-08-19T03:53:50;99950.93;;;18.30;37.15
63339;BME280;47485;51.378;-1.342;2022-08-19T03:56:18;99954.98;;;16.57;37.17
63339;BME280;47485;51.378;-1.342;2022-08-19T03:58:46;99959.45;;;17.46;37.23
63339;BME280;47485;51.378;-1.342;2022-08-19T04:01:16;99962.41;;;18.48;37.16
63339;BME280;47485;51.378;-1.342;2022-08-19T04:03:44;99959.53;;;17.85;36.78
63339;BME280;47485;51.378;-1.342;2022-08-19T04:06:12;99959.95;;;19.34;35.74
63339;BME280;47485;51.378;-1.342;2022-08-19T04:08:39;99961.79;;;19.24;35.82
63339;BME280;47485;51.378;-1.342;2022-08-19T04:11:07;99960.11;;;18.39;36.19
63339;BME280;47485;51.378;-1.342;2022-08-19T04:13:35;99962.35;;;19.03;34.78
63339;BME280;47485;51.378;-1.342;2022-08-19T04:16:01;99965.57;;;19.70;34.20
63339;BME280;47485;51.378;-1.342;2022-08-19T04:18:29;99963.71;;;18.10;34.33
63339;BME280;47485;51.378;-1.342;2022-08-19T04:20:55;99963.57;;;20.19;32.81
63339;BME280;47485;51.378;-1.342;2022-08-19T04:23:22;99966.72;;;20.48;32.42
63339;BME280;47485;51.378;-1.342;2022-08-19T04:25:50;99967.32;;;19.66;32.59
63339;BME280;47485;51.378;-1.342;2022-08-19T04:28:18;99970.42;;;19.70;33.33
63339;BME280;47485;51.378;-1.342;2022-08-19T04:30:46;99974.72;;;19.48;34.13
63339;BME280;47485;51.378;-1.342;2022-08-19T04:33:15;99977.65;;;18.89;34.93
63339;BME280;47485;51.378;-1.342;2022-08-19T04:35:43;99978.05;;;18.76;35.73
63339;BME280;47485;51.378;-1.342;2022-08-19T04:38:11;99978.80;;;18.60;36.00
63339;BME280;47485;51.378;-1.342;2022-08-19T04:40:40;99980.08;;;17.36;37.02
63339;BME280;47485;51.378;-1.342;2022-08-19T04:43:07;99983.02;;;17.81;36.87
63339;BME280;47485;51.378;-1.342;2022-08-19T04:45:36;99985.17;;;18.09;36.54
63339;BME280;47485;51.378;-1.342;2022-08-19T04:48:03;99982.61;;;17.43;36.44
63339;BME280;47485;51.378;-1.342;2022-08-19T04:50:30;99983.06;;;17.36;37.09
63339;BME280;47485;51.378;-1.342;2022-08-19T04:52:57;99984.68;;;17.37;37.58
63339;BME280;47485;51.378;-1.342;2022-08-19T04:55:23;99982.45;;;16.75;37.25
63339;BME280;47485;51.378;-1.342;2022-08-19T04:57:51;99983.31;;;16.93;37.37
63339;BME280;47485;51.378;-1.342;2022-08-19T05:00:19;99982.72;;;17.27;36.52
63339;BME280;47485;51.378;-1.342;2022-08-19T05:02:46;99985.37;;;18.15;36.66
63339;BME280;47485;51.378;-1.342;2022-08-19T05:05:13;99985.85;;;17.56;35.15
63339;BME280;47485;51.378;-1.342;2022-08-19T05:07:39;99986.42;;;16.51;35.31
63339;BME280;47485;51.378;-1.342;2022-08-19T05:10:07;99990.02;;;18.51;32.93
63339;BME280;47485;51.378;-1.342;2022-08-19T05:12:34;99998.49;;;19.53;32.36
63339;BME280;47485;51.378;-1.342;2022-08-19T05:15:03;99994.82;;;19.01;31.40
63339;BME280;47485;51.378;-1.342;2022-08-19T05:17:30;99991.62;;;20.46;30.46
63339;BME280;47485;51.378;-1.342;2022-08-19T05:19:56;99989.17;;;19.59;30.74
63339;BME280;47485;51.378;-1.342;2022-08-19T05:22:23;99992.06;;;21.31;30.04
63339;BME280;47485;51.378;-1.342;2022-08-19T05:24:50;99999.40;;;19.80;31.09
63339;BME280;47485;51.378;-1.342;2022-08-19T05:27:17;99995.22;;;20.87;29.48
63339;BME280;47485;51.378;-1.342;2022-08-19T05:29:44;100001.07;;;21.00;29.87
63339;BME280;47485;51.378;-1.342;2022-08-19T05:32:11;100010.29;;;20.27;30.67
63339;BME280;47485;51.378;-1.342;2022-08-19T05:34:38;100017.28;;;19.43;32.33
63339;BME280;47485;51.378;-1.342;2022-08-19T05:37:05;100012.31;;;18.80;33.10
63339;BME280;47485;51.378;-1.342;2022-08-19T05:39:34;100016.87;;;19.63;32.58
63339;BME280;47485;51.378;-1.342;2022-08-19T05:42:04;100019.25;;;19.87;33.81
63339;BME280;47485;51.378;-1.342;2022-08-19T05:44:33;100022.02;;;18.87;35.22
63339;BME280;47485;51.378;-1.342;2022-08-19T05:47:03;100025.21;;;17.67;36.51
63339;BME280;47485;51.378;-1.342;2022-08-19T05:49:33;100028.03;;;17.27;36.49
63339;BME280;47485;51.378;-1.342;2022-08-19T05:52:01;100028.43;;;17.83;37.00
63339;BME280;47485;51.378;-1.342;2022-08-19T05:54:28;100031.91;;;16.93;36.88
63339;BME280;47485;51.378;-1.342;2022-08-19T05:56:55;100032.45;;;16.60;35.32
63339;BME280;47485;51.378;-1.342;2022-08-19T05:59:22;100034.31;;;19.05;34.25
63339;BME280;47485;51.378;-1.342;2022-08-19T06:01:51;100036.61;;;19.02;34.10
63339;BME280;47485;51.378;-1.342;2022-08-19T06:04:20;100036.10;;;19.02;34.09
63339;BME280;47485;51.378;-1.342;2022-08-19T06:06:48;100039.76;;;18.96;33.27
63339;BME280;47485;51.378;-1.342;2022-08-19T06:09:15;100042.35;;;17.63;33.98
63339;BME280;47485;51.378;-1.342;2022-08-19T06:11:45;100040.21;;;18.02;35.01
63339;BME280;47485;51.378;-1.342;2022-08-19T06:14:14;100047.15;;;16.72;37.74
63339;BME280;47485;51.378;-1.342;2022-08-19T06:16:42;100044.38;;;16.40;38.23
63339;BME280;47485;51.378;-1.342;2022-08-19T06:19:10;100046.95;;;15.09;39.22
63339;BME280;47485;51.378;-1.342;2022-08-19T06:21:40;100044.53;;;16.45;38.37
63339;BME280;47485;51.378;-1.342;2022-08-19T06:24:09;100039.50;;;16.54;36.58
63339;BME280;47485;51.378;-1.342;2022-08-19T06:26:39;100045.14;;;16.78;37.65
63339;BME280;47485;51.378;-1.342;2022-08-19T06:29:08;100051.93;;;15.96;38.75
63339;BME280;47485;51.378;-1.342;2022-08-19T06:31:36;100049.03;;;15.56;37.94
63339;BME280;47485;51.378;-1.342;2022-08-19T06:34:04;100048.94;;;15.65;37.39
63339;BME280;47485;51.378;-1.342;2022-08-19T06:36:33;100049.86;;;15.44;37.31
63339;BME280;47485;51.378;-1.342;2022-08-19T06:39:02;100053.73;;;16.31;38.04
63339;BME280;47485;51.378;-1.342;2022-08-19T06:41:29;100054.66;;;16.12;37.39
63339;BME280;47485;51.378;-1.342;2022-08-19T06:43:57;100056.99;;;16.86;37.15
63339;BME280;47485;51.378;-1.342;2022-08-19T06:46:24;100058.92;;;15.07;38.60
63339;BME280;47485;51.378;-1.342;2022-08-19T06:48:51;100060.07;;;15.00;39.07
63339;BME280;47485;51.378;-1.342;2022-08-19T06:51:20;100063.60;;;12.69;41.87
63339;BME280;47485;51.378;-1.342;2022-08-19T06:53:48;100064.35;;;15.21;39.97
63339;BME280;47485;51.378;-1.342;2022-08-19T06:56:17;100070.41;;;14.74;39.90
63339;BME280;47485;51.378;-1.342;2022-08-19T06:58:45;100071.23;;;14.01;40.87
63339;BME280;47485;51.378;-1.342;2022-08-19T07:01:12;100072.65;;;14.43;40.76
63339;BME280;47485;51.378;-1.342;2022-08-19T07:03:39;100074.69;;;14.32;39.87
63339;BME280;47485;51.378;-1.342;2022-08-19T07:06:08;100076.12;;;14.54;40.97
63339;BME280;47485;51.378;-1.342;2022-08-19T07:08:37;100076.76;;;15.06;39.06
63339;BME280;47485;51.378;-1.342;2022-08-19T07:11:06;100076.78;;;13.98;40.32
63339;BME280;47485;51.378;-1.342;2022-08-19T07:13:34;100079.89;;;13.44;41.42
63339;BME280;47485;51.378;-1.342;2022-08-19T07:16:03;100074.64;;;13.61;42.11
63339;BME280;47485;51.378;-1.342;2022-08-19T07:18:30;100083.64;;;13.17;43.73
63339;BME280;47485;51.378;-1.342;2022-08-19T07:21:03;100077.42;;;13.43;42.66
63339;BME280;47485;51.378;-1.342;2022-08-19T07:23:30;100083.68;;;12.17;44.50
63339;BME280;47485;51.378;-1.342;2022-08-19T07:25:58;100084.18;;;13.13;43.52
63339;BME280;47485;51.378;-1.342;2022-08-19T07:28:25;100088.00;;;13.64;42.64
63339;BME280;47485;51.378;-1.342;2022-08-19T07:30:52;100088.71;;;12.08;44.17
63339;BME280;47485;51.378;-1.342;2022-08-19T07:33:20;100083.95;;;12.64;45.00
63339;BME280;47485;51.378;-1.342;2022-08-19T07:35:47;100085.05;;;12.45;43.46
63339;BME280;47485;51.378;-1.342;2022-08-19T07:38:15;100079.11;;;13.61;40.84
63339;BME280;47485;51.378;-1.342;2022-08-19T07:40:43;100079.96;;;15.23;39.45
63339;BME280;47485;51.378;-1.342;2022-08-19T07:43:10;100082.27;;;13.26;39.97
63339;BME280;47485;51.378;-1.342;2022-08-19T07:45:37;100089.60;;;13.91;41.27
63339;BME280;47485;51.378;-1.342;2022-08-19T07:48:04;100089.83;;;13.78;42.26
63339;BME280;47485;51.378;-1.342;2022-08-19T07:50:31;100091.65;;;13.36;42.32
63339;BME280;47485;51.378;-1.342;2022-08-19T07:52:58;100091.93;;;13.88;41.52
63339;BME280;47485;51.378;-1.342;2022-08-19T07:55:25;100097.85;;;12.74;41.57
63339;BME280;47485;51.378;-1.342;2022-08-19T07:57:53;100095.67;;;13.40;40.72
63339;BME280;47485;51.378;-1.342;2022-08-19T08:00:20;100100.73;;;12.09;40.73
63339;BME280;47485;51.378;-1.342;2022-08-19T08:02:47;100102.48;;;13.33;40.11
63339;BME280;47485;51.378;-1.342;2022-08-19T08:05:14;100097.43;;;14.29;38.93
63339;BME280;47485;51.378;-1.342;2022-08-19T08:07:40;100099.19;;;13.80;38.01
63339;BME280;47485;51.378;-1.342;2022-08-19T08:10:07;100101.76;;;13.39;36.56
63339;BME280;47485;51.378;-1.342;2022-08-19T08:12:38;100101.97;;;14.06;36.46
63339;BME280;47485;51.378;-1.342;2022-08-19T08:15:10;100105.47;;;14.36;37.50
63339;BME280;47485;51.378;-1.342;2022-08-19T08:17:37;100108.37;;;14.31;36.46
63339;BME280;47485;51.378;-1.342;2022-08-19T08:20:05;100107.82;;;16.37;34.43
63339;BME280;47485;51.378;-1.342;2022-08-19T08:22:33;100111.92;;;13.90;35.88
63339;BME280;47485;51.378;-1.342;2022-08-19T08:25:02;100118.74;;;12.64;38.83
63339;BME280;47485;51.378;-1.342;2022-08-19T08:27:29;100122.58;;;13.19;39.41
63339;BME280;47485;51.378;-1.342;2022-08-19T08:29:56;100117.91;;;13.42;37.25
63339;BME280;47485;51.378;-1.342;2022-08-19T08:32:23;100124.64;;;12.84;37.81
63339;BME280;47485;51.378;-1.342;2022-08-19T08:34:50;100125.53;;;14.18;37.25
63339;BME280;47485;51.378;-1.342;2022-08-19T08:37:19;100122.04;;;13.62;37.74
63339;BME280;47485;51.378;-1.342;2022-08-19T08:39:46;100118.52;;;13.53;35.09
63339;BME280;47485;51.378;-1.342;2022-08-19T08:42:17;100121.42;;;14.34;35.94
63339;BME280;47485;51.378;-1.342;2022-08-19T08:44:53;100123.70;;;13.30;37.64
63339;BME280;47485;51.378;-1.342;2022-08-19T08:47:25;100129.34;;;12.69;39.07
63339;BME280;47485;51.378;-1.342;2022-08-19T08:50:02;100131.47;;;12.32;38.66
63339;BME280;47485;51.378;-1.342;2022-08-19T08:52:33;100135.62;;;11.20;39.44
63339;BME280;47485;51.378;-1.342;2022-08-19T08:55:07;100135.99;;;13.08;37.73
63339;BME280;47485;51.378;-1.342;2022-08-19T08:57:37;100140.28;;;12.86;38.49
63339;BME280;47485;51.378;-1.342;2022-08-19T09:00:09;100139.81;;;12.38;37.04
63339;BME280;47485;51.378;-1.342;2022-08-19T09:02:37;100135.05;;;13.10;36.12
63339;BME280;47485;51.378;-1.342;2022-08-19T09:05:05;100143.70;;;13.03;37.22
63339;BME280;47485;51.378;-1.342;2022-08-19T09:07:41;100143.94;;;13.34;36.73
63339;BME280;47485;51.378;-1.342;2022-08-19T09:10:17;100138.91;;;13.65;35.29
63339;BME280;47485;51.378;-1.342;2022-08-19T09:12:55;100146.84;;;12.91;37.13
63339;BME280;47485;51.378;-1.342;2022-08-19T09:15:32;100144.96;;;13.20;36.40
63339;BME280;47485;51.378;-1.342;2022-08-19T09:18:01;100145.97;;;12.81;35.42
63339;BME280;47485;51.378;-1.342;2022-08-19T09:20:29;100152.54;;;13.36;36.77
63339;BME280;47485;51.378;-1.342;2022-08-19T09:22:56;100150.94;;;12.35;37.76
63339;BME280;47485;51.378;-1.342;2022-08-19T09:25:24;100148.84;;;13.32;34.48
63339;BME280;47485;51.378;-1.342;2022-08-19T09:27:52;100151.92;;;15.07;33.59
63339;BME280;47485;51.378;-1.342;2022-08-19T09:30:23;100156.12;;;13.48;32.39
63339;BME280;47485;51.378;-1.342;2022-08-19T09:32:51;100159.59;;;13.25;35.09
63339;BME280;47485;51.378;-1.342;2022-08-19T09:35:20;100152.57;;;13.99;33.14
63339;BME280;47485;51.378;-1.342;2022-08-19T09:37:48;100158.31;;;14.63;32.92
63339;BME280;47485;51.378;-1.342;2022-08-19T09:40:16;100156.46;;;13.52;32.02
63339;BME280;47485;51.378;-1.342;2022-08-19T09:42:43;100154.55;;;13.55;32.02
63339;BME280;47485;51.378;-1.342;2022-08-19T09:45:10;100151.80;;;14.54;31.90
63339;BME280;47485;51.378;-1.342;2022-08-19T09:47:37;100155.48;;;15.15;31.29
63339;BME280;47485;51.378;-1.342;2022-08-19T09:50:06;100151.19;;;13.60;31.49
63339;BME280;47485;51.378;-1.342;2022-08-19T09:52:33;100162.31;;;12.47;32.32
63339;BME280;47485;51.378;-1.342;2022-08-19T09:55:00;100163.97;;;12.65;31.40
63339;BME280;47485;51.378;-1.342;2022-08-19T09:57:27;100158.64;;;14.13;30.81
63339;BME280;47485;51.378;-1.342;2022-08-19T09:59:54;100157.84;;;15.19;29.29
63339;BME280;47485;51.378;-1.342;2022-08-19T10:02:20;100157.67;;;14.29;30.09
63339;BME280;47485;51.378;-1.342;2022-08-19T10:04:47;100161.49;;;14.74;30.93
63339;BME280;47485;51.378;-1.342;2022-08-19T10:07:14;100168.66;;;13.34;30.73
63339;BME280;47485;51.378;-1.342;2022-08-19T10:09:41;100165.81;;;13.54;31.43
63339;BME280;47485;51.378;-1.342;2022-08-19T10:12:08;100155.59;;;14.11;30.34
63339;BME280;47485;51.378;-1.342;2022-08-19T10:14:35;100157.84;;;13.97;30.68
63339;BME280;47485;51.378;-1.342;2022-08-19T10:17:02;100164.11;;;12.69;31.36
63339;BME280;47485;51.378;-1.342;2022-08-19T10:19:29;100169.24;;;13.49;32.30
63339;BME280;47485;51.378;-1.342;2022-08-19T10:21:56;100168.58;;;12.46;31.45
63339;BME280;47485;51.378;-1.342;2022-08-19T10:24:23;100171.63;;;12.45;31.41
63339;BME280;47485;51.378;-1.342;2022-08-19T10:26:50;100169.32;;;13.51;31.53
63339;BME280;47485;51.378;-1.342;2022-08-19T10:29:17;100171.28;;;13.50;31.39
63339;BME280;47485;51.378;-1.342;2022-08-19T10:31:44;100176.40;;;13.72;31.08
63339;BME280;47485;51.378;-1.342;2022-08-19T10:34:10;100182.12;;;13.36;30.36
63339;BME280;47485;51.378;-1.342;2022-08-19T10:36:37;100175.62;;;12.46;29.03
63339;BME280;47485;51.378;-1.342;2022-08-19T10:39:07;100177.73;;;14.09;29.25
63339;BME280;47485;51.378;-1.342;2022-08-19T10:41:36;100172.60;;;14.42;26.87
63339;BME280;47485;51.378;-1.342;2022-08-19T10:44:05;100171.83;;;14.31;26.79
63339;BME280;47485;51.378;-1.342;2022-08-19T10:46:35;100175.29;;;14.40;27.26
63339;BME280;47485;51.378;-1.342;2022-08-19T10:49:05;100171.39;;;14.46;25.52
63339;BME280;47485;51.378;-1.342;2022-08-19T10:51:32;100179.90;;;14.29;26.99
63339;BME280;47485;51.378;-1.342;2022-08-19T10:53:59;100174.02;;;14.84;26.38
63339;BME280;47485;51.378;-1.342;2022-08-19T10:56:27;100174.61;;;14.19;26.79
63339;BME280;47485;51.378;-1.342;2022-08-19T10:58:54;100169.53;;;15.27;25.15
63339;BME280;47485;51.378;-1.342;2022-08-19T11:01:21;100172.70;;;15.54;25.32
63339;BME280;47485;51.378;-1.342;2022-08-19T11:03:48;100167.60;;;14.12;25.05
63339;BME280;47485;51.378;-1.342;2022-08-19T11:06:15;100170.75;;;14.64;24.55
63339;BME280;47485;51.378;-1.342;2022-08-19T11:08:42;100170.15;;;15.39;24.88
63339;BME280;47485;51.378;-1.342;2022-08-19T11:11:09;100175.48;;;14.37;24.24
63339;BME280;47485;51.378;-1.342;2022-08-19T11:13:39;100176.58;;;14.83;25.66
63339;BME280;47485;51.378;-1.342;2022-08-19T11:16:09;100180.45;;;14.93;25.35
63339;BME280;47485;51.378;-1.342;2022-08-19T11:18:37;100176.40;;;15.94;25.10
63339;BME280;47485;51.378;-1.342;2022-08-19T11:21:08;100175.19;;;15.41;24.88
63339;BME280;47485;51.378;-1.342;2022-08-19T11:23:36;100169.83;;;15.18;25.17
63339;BME280;47485;51.378;-1.342;2022-08-19T11:26:03;100174.55;;;13.80;25.34
63339;BME280;47485;51.378;-1.342;2022-08-19T11:28:29;100167.81;;;13.27;24.19
63339;BME280;47485;51.378;-1.342;2022-08-19T11:30:56;100164.31;;;15.62;23.64
63339;BME280;47485;51.378;-1.342;2022-08-19T11:33:23;100164.60;;;15.25;22.89
63339;BME280;47485;51.378;-1.342;2022-08-19T11:35:50;100160.82;;;11.78;24.45
63339;BME280;47485;51.378;-1.342;2022-08-19T11:38:17;100157.39;;;12.79;23.88
63339;BME280;47485;51.378;-1.342;2022-08-19T11:40:44;100159.17;;;17.36;21.18
63339;BME280;47485;51.378;-1.342;2022-08-19T11:43:11;100171.72;;;15.94;24.69
63339;BME280;47485;51.378;-1.342;2022-08-19T11:45:37;100171.40;;;15.22;23.83
63339;BME280;47485;51.378;-1.342;2022-08-19T11:48:04;100176.73;;;15.26;24.10
63339;BME280;47485;51.378;-1.342;2022-08-19T11:50:31;100169.59;;;15.93;24.04
63339;BME280;47485;51.378;-1.342;2022-08-19T11:52:57;100166.89;;;16.45;24.09
63339;BME280;47485;51.378;-1.342;2022-08-19T11:55:24;100169.85;;;13.76;26.11
63339;BME280;47485;51.378;-1.342;2022-08-19T11:57:51;100167.53;;;14.27;24.73
63339;BME280;47485;51.378;-1.342;2022-08-19T12:00:19;100172.47;;;14.75;25.08
63339;BME280;47485;51.378;-1.342;2022-08-19T12:02:46;100171.42;;;15.70;25.10
63339;BME280;47485;51.378;-1.342;2022-08-19T12:05:13;100161.01;;;14.28;25.30
63339;BME280;47485;51.378;-1.342;2022-08-19T12:07:40;100163.38;;;14.48;25.34
63339;BME280;47485;51.378;-1.342;2022-08-19T12:10:07;100170.97;;;14.13;25.51
63339;BME280;47485;51.378;-1.342;2022-08-19T12:12:34;100165.06;;;16.64;24.40
63339;BME280;47485;51.378;-1.342;2022-08-19T12:15:01;100174.58;;;14.59;25.45
63339;BME280;47485;51.378;-1.342;2022-08-19T12:17:28;100179.25;;;14.16;26.32
63339;BME280;47485;51.378;-1.342;2022-08-19T12:19:55;100172.81;;;16.03;25.99
63339;BME280;47485;51.378;-1.342;2022-08-19T12:22:22;100166.76;;;14.47;24.56
63339;BME280;47485;51.378;-1.342;2022-08-19T12:24:48;100169.36;;;15.43;24.92
63339;BME280;47485;51.378;-1.342;2022-08-19T12:27:15;100164.95;;;16.10;24.17
63339;BME280;47485;51.378;-1.342;2022-08-19T12:29:42;100165.81;;;15.43;23.99
63339;BME280;47485;51.378;-1.342;2022-08-19T12:32:09;100168.68;;;14.13;26.41
63339;BME280;47485;51.378;-1.342;2022-08-19T12:34:35;100167.73;;;14.40;26.68
63339;BME280;47485;51.378;-1.342;2022-08-19T12:37:04;100165.98;;;15.56;24.49
63339;BME280;47485;51.378;-1.342;2022-08-19T12:39:35;100172.67;;;15.62;24.64
63339;BME280;47485;51.378;-1.342;2022-08-19T12:42:02;100178.62;;;14.45;25.30
63339;BME280;47485;51.378;-1.342;2022-08-19T12:44:28;100177.02;;;14.24;25.83
63339;BME280;47485;51.378;-1.342;2022-08-19T12:46:55;100168.91;;;15.27;25.08
63339;BME280;47485;51.378;-1.342;2022-08-19T12:49:23;100174.57;;;15.55;25.88